sensor_id;sensor_type;location;lat;lon;timestamp;temperature;humidity
16728;DHT22;8482;54.396;18.590;2023-11-21T00:00:19;3.50;99.90
16728;DHT22;8482;54.396;18.590;2023-11-21T00:02:45;3.50;99.90
16728;DHT22;8482;54.396;18.590;2023-11-21T00:05:12;3.40;99.90
16728;DHT22;8482;54.396;18.590;2023-11-21T00:07:43;3.40;99.90
16728;DHT22;8482;54.396;18.590;2023-11-21T00:10:10;3.30;99.90
16728;DHT22;8482;54.396;18.590;2023-11-21T00:12:36;3.30;99.90
16728;DHT22;8482;54.396;18.590;2023-11-21T00:15:03;3.30;99.90
16728;DHT22;8482;54.396;18.590;2023-11-21T00:17:34;3.30;99.90
16728;DHT22;8482;54.396;18.590;2023-11-21T00:20:00;3.30;99.90
16728;DHT22;8482;54.396;18.590;2023-11-21T00:22:26;3.30;99.90
16728;DHT22;8482;54.396;18.590;2023-11-21T00:24:52;3.30;99.90
16728;DHT22;8482;54.396;18.590;2023-11-21T00:27:17;3.30;99.90
16728;DHT22;8482;54.396;18.590;2023-11-21T00:29:43;3.20;99.90
16728;DHT22;8482;54.396;18.590;2023-11-21T00:32:09;3.20;99.90
16728;DHT22;8482;54.396;18.590;2023-11-21T00:34:35;3.30;99.90
16728;DHT22;8482;54.396;18.590;2023-11-21T00:37:00;3.20;99.90
16728;DHT22;8482;54.396;18.590;2023-11-21T00:39:28;3.20;99.90
16728;DHT22;8482;54.396;18.590;2023-11-21T00:41:54;3.20;99.90
16728;DHT22;8482;54.396;18.590;2023-11-21T00:44:19;3.20;99.90
16728;DHT22;8482;54.396;18.590;2023-11-21T00:46:45;3.20;99.90
16728;DHT22;8482;54.396;18.590;2023-11-21T00:49:11;3.20;99.90
16728;DHT22;8482;54.396;18.590;2023-11-21T00:51:37;3.20;99.90
16728;DHT22;8482;54.396;18.590;2023-11-21T00:54:03;3.20;99.90
16728;DHT22;8482;54.396;18.590;2023-11-21T00:56:29;3.20;99.90
16728;DHT22;8482;54.396;18.590;2023-11-21T00:58:54;3.20;99.90
16728;DHT22;8482;54.396;18.590;2023-11-21T01:01:21;3.30;99.90
16728;DHT22;8482;54.396;18.590;2023-11-21T01:03:48;3.30;99.90
16728;DHT22;8482;54.396;18.590;2023-11-21T01:06:15;3.30;99.90
16728;DHT22;8482;54.396;18.590;2023-11-21T01:08:41;3.30;99.90
16728;DHT22;8482;54.396;18.590;2023-11-21T01:11:07;3.40;99.90
16728;DHT22;8482;54.396;18.590;2023-11-21T01:13:38;3.40;99.90
16728;DHT22;8482;54.396;18.590;2023-11-21T01:16:05;3.50;99.90
16728;DHT22;8482;54.396;18.590;2023-11-21T01:18:32;3.50;99.90
16728;DHT22;8482;54.396;18.590;2023-11-21T01:20:58;3.50;99.90
16728;DHT22;8482;54.396;18.590;2023-11-21T01:23:26;3.50;99.90
16728;DHT22;8482;54.396;18.590;2023-11-21T01:25:53;3.50;99.90
16728;DHT22;8482;54.396;18.590;2023-11-21T01:28:21;3.50;99.90
16728;DHT22;8482;54.396;18.590;2023-11-21T01:30:48;3.60;99.90
16728;DHT22;8482;54.396;18.590;2023-11-21T01:33:14;3.60;99.90
16728;DHT22;8482;54.396;18.590;2023-11-21T01:35:41;3.60;99.90
16728;DHT22;8482;54.396;18.590;2023-11-21T01:38:08;3.60;99.90
16728;DHT22;8482;54.396;18.590;2023-11-21T01:40:34;3.70;99.90
16728;DHT22;8482;54.396;18.590;2023-11-21T01:43:00;3.70;99.90
16728;DHT22;8482;54.396;18.590;2023-11-21T01:45:30;3.70;99.90
16728;DHT22;8482;54.396;18.590;2023-11-21T01:47:59;3.70;99.90
16728;DHT22;8482;54.396;18.590;2023-11-21T01:50:26;3.70;99.90
16728;DHT22;8482;54.396;18.590;2023-11-21T01:52:53;3.70;99.90
16728;DHT22;8482;54.396;18.590;2023-11-21T01:55:19;3.70;99.90
16728;DHT22;8482;54.396;18.590;2023-11-21T01:57:46;3.80;99.90
16728;DHT22;8482;54.396;18.590;2023-11-21T02:00:12;3.70;99.90
16728;DHT22;8482;54.396;18.590;2023-11-21T02:02:44;3.80;99.90
16728;DHT22;8482;54.396;18.590;2023-11-21T02:05:12;3.80;99.90
16728;DHT22;8482;54.396;18.590;2023-11-21T02:07:40;3.80;99.90
16728;DHT22;8482;54.396;18.590;2023-11-21T02:10:08;3.80;99.90
16728;DHT22;8482;54.396;18.590;2023-11-21T02:12:35;3.80;99.90
16728;DHT22;8482;54.396;18.590;2023-11-21T02:15:04;3.70;99.90
16728;DHT22;8482;54.396;18.590;2023-11-21T02:17:35;3.80;99.90
16728;DHT22;8482;54.396;18.590;2023-11-21T02:20:02;3.70;99.90
16728;DHT22;8482;54.396;18.590;2023-11-21T02:22:31;3.80;99.90
16728;DHT22;8482;54.396;18.590;2023-11-21T02:25:03;3.80;99.90
16728;DHT22;8482;54.396;18.590;2023-11-21T02:27:29;3.70;99.90
16728;DHT22;8482;54.396;18.590;2023-11-21T02:29:55;3.80;99.90
16728;DHT22;8482;54.396;18.590;2023-11-21T02:32:21;3.80;99.90
16728;DHT22;8482;54.396;18.590;2023-11-21T02:34:48;3.80;99.90
16728;DHT22;8482;54.396;18.590;2023-11-21T02:37:15;3.80;99.90
16728;DHT22;8482;54.396;18.590;2023-11-21T02:39:41;3.80;99.90
16728;DHT22;8482;54.396;18.590;2023-11-21T02:42:07;3.80;99.90
16728;DHT22;8482;54.396;18.590;2023-11-21T02:44:33;3.80;99.90
16728;DHT22;8482;54.396;18.590;2023-11-21T02:46:59;3.80;99.90
16728;DHT22;8482;54.396;18.590;2023-11-21T02:49:25;3.80;99.90
16728;DHT22;8482;54.396;18.590;2023-11-21T02:51:54;3.80;99.90
16728;DHT22;8482;54.396;18.590;2023-11-21T02:54:20;3.80;99.90
16728;DHT22;8482;54.396;18.590;2023-11-21T02:56:48;3.80;99.90
16728;DHT22;8482;54.396;18.590;2023-11-21T02:59:15;3.70;99.90
16728;DHT22;8482;54.396;18.590;2023-11-21T03:01:41;3.70;99.90
16728;DHT22;8482;54.396;18.590;2023-11-21T03:04:07;3.70;99.90
16728;DHT22;8482;54.396;18.590;2023-11-21T03:06:33;3.70;99.90
16728;DHT22;8482;54.396;18.590;2023-11-21T03:08:59;3.70;99.90
16728;DHT22;8482;54.396;18.590;2023-11-21T03:11:25;3.70;99.90
16728;DHT22;8482;54.396;18.590;2023-11-21T03:13:51;3.70;99.90
16728;DHT22;8482;54.396;18.590;2023-11-21T03:16:18;3.70;99.90
16728;DHT22;8482;54.396;18.590;2023-11-21T03:18:44;3.70;99.90
16728;DHT22;8482;54.396;18.590;2023-11-21T03:21:10;3.70;99.90
16728;DHT22;8482;54.396;18.590;2023-11-21T03:23:37;3.70;99.90
16728;DHT22;8482;54.396;18.590;2023-11-21T03:26:03;3.70;99.90
16728;DHT22;8482;54.396;18.590;2023-11-21T03:28:29;3.70;99.90
16728;DHT22;8482;54.396;18.590;2023-11-21T03:30:55;3.70;99.90
16728;DHT22;8482;54.396;18.590;2023-11-21T03:33:21;3.70;99.90
16728;DHT22;8482;54.396;18.590;2023-11-21T03:35:48;3.70;99.90
16728;DHT22;8482;54.396;18.590;2023-11-21T03:38:14;3.70;99.90
16728;DHT22;8482;54.396;18.590;2023-11-21T03:40:41;3.70;99.90
16728;DHT22;8482;54.396;18.590;2023-11-21T03:43:07;3.70;99.90
16728;DHT22;8482;54.396;18.590;2023-11-21T03:45:33;3.70;99.90
16728;DHT22;8482;54.396;18.590;2023-11-21T03:47:59;3.60;99.90
16728;DHT22;8482;54.396;18.590;2023-11-21T03:50:28;3.60;99.90
16728;DHT22;8482;54.396;18.590;2023-11-21T03:52:54;3.70;99.90
16728;DHT22;8482;54.396;18.590;2023-11-21T03:55:20;3.70;99.90
16728;DHT22;8482;54.396;18.590;2023-11-21T03:57:46;3.70;99.90
16728;DHT22;8482;54.396;18.590;2023-11-21T04:00:12;3.70;99.90
16728;DHT22;8482;54.396;18.590;2023-11-21T04:02:38;3.70;99.90
16728;DHT22;8482;54.396;18.590;2023-11-21T04:05:05;3.70;99.90
16728;DHT22;8482;54.396;18.590;2023-11-21T04:07:32;3.60;99.90
16728;DHT22;8482;54.396;18.590;2023-11-21T04:09:59;3.60;99.90
16728;DHT22;8482;54.396;18.590;2023-11-21T04:12:25;3.60;99.90
16728;DHT22;8482;54.396;18.590;2023-11-21T04:14:51;3.60;99.90
16728;DHT22;8482;54.396;18.590;2023-11-21T04:17:20;3.60;99.90
16728;DHT22;8482;54.396;18.590;2023-11-21T04:19:46;3.60;99.90
16728;DHT22;8482;54.396;18.590;2023-11-21T04:22:12;3.60;99.90
16728;DHT22;8482;54.396;18.590;2023-11-21T04:24:38;3.60;99.90
16728;DHT22;8482;54.396;18.590;2023-11-21T04:27:04;3.60;99.90
16728;DHT22;8482;54.396;18.590;2023-11-21T04:29:30;3.60;99.90
16728;DHT22;8482;54.396;18.590;2023-11-21T04:31:56;3.60;99.90
16728;DHT22;8482;54.396;18.590;2023-11-21T04:34:21;3.60;99.90
16728;DHT22;8482;54.396;18.590;2023-11-21T04:36:47;3.60;99.90
16728;DHT22;8482;54.396;18.590;2023-11-21T04:39:13;3.70;99.90
16728;DHT22;8482;54.396;18.590;2023-11-21T04:41:39;3.70;99.90
16728;DHT22;8482;54.396;18.590;2023-11-21T04:44:06;3.70;99.90
16728;DHT22;8482;54.396;18.590;2023-11-21T04:46:32;3.80;99.90
16728;DHT22;8482;54.396;18.590;2023-11-21T04:48:58;3.80;99.90
16728;DHT22;8482;54.396;18.590;2023-11-21T04:51:24;3.80;99.90
16728;DHT22;8482;54.396;18.590;2023-11-21T04:53:50;3.80;99.90
16728;DHT22;8482;54.396;18.590;2023-11-21T04:56:16;3.80;99.90
16728;DHT22;8482;54.396;18.590;2023-11-21T04:58:42;3.90;99.90
16728;DHT22;8482;54.396;18.590;2023-11-21T05:01:08;3.90;99.90
16728;DHT22;8482;54.396;18.590;2023-11-21T05:03:34;3.90;99.90
16728;DHT22;8482;54.396;18.590;2023-11-21T05:06:00;4.00;99.90
16728;DHT22;8482;54.396;18.590;2023-11-21T05:08:26;4.00;99.90
16728;DHT22;8482;54.396;18.590;2023-11-21T05:10:52;4.00;99.90
16728;DHT22;8482;54.396;18.590;2023-11-21T05:13:20;4.00;99.90
16728;DHT22;8482;54.396;18.590;2023-11-21T05:15:46;4.00;99.90
16728;DHT22;8482;54.396;18.590;2023-11-21T05:18:12;4.00;99.90
16728;DHT22;8482;54.396;18.590;2023-11-21T05:20:39;4.10;99.90
16728;DHT22;8482;54.396;18.590;2023-11-21T05:23:06;4.10;99.90
16728;DHT22;8482;54.396;18.590;2023-11-21T05:25:33;4.10;99.90
16728;DHT22;8482;54.396;18.590;2023-11-21T05:27:59;4.10;99.90
16728;DHT22;8482;54.396;18.590;2023-11-21T05:30:27;4.10;99.90
16728;DHT22;8482;54.396;18.590;2023-11-21T05:32:53;4.10;99.90
16728;DHT22;8482;54.396;18.590;2023-11-21T05:35:19;4.10;99.90
16728;DHT22;8482;54.396;18.590;2023-11-21T05:37:48;4.10;99.90
16728;DHT22;8482;54.396;18.590;2023-11-21T05:40:14;4.10;99.90
16728;DHT22;8482;54.396;18.590;2023-11-21T05:42:40;4.10;99.90
16728;DHT22;8482;54.396;18.590;2023-11-21T05:45:07;4.10;99.90
16728;DHT22;8482;54.396;18.590;2023-11-21T05:47:41;4.00;99.90
16728;DHT22;8482;54.396;18.590;2023-11-21T05:50:09;4.00;99.90
16728;DHT22;8482;54.396;18.590;2023-11-21T05:52:38;4.10;99.90
16728;DHT22;8482;54.396;18.590;2023-11-21T05:55:05;4.10;99.90
16728;DHT22;8482;54.396;18.590;2023-11-21T05:57:38;4.10;99.90
16728;DHT22;8482;54.396;18.590;2023-11-21T06:00:05;4.10;99.90
16728;DHT22;8482;54.396;18.590;2023-11-21T06:02:39;4.10;99.90
16728;DHT22;8482;54.396;18.590;2023-11-21T06:05:09;4.10;99.90
16728;DHT22;8482;54.396;18.590;2023-11-21T06:07:36;4.10;99.90
16728;DHT22;8482;54.396;18.590;2023-11-21T06:10:03;4.10;99.90
16728;DHT22;8482;54.396;18.590;2023-11-21T06:12:35;4.10;99.90
16728;DHT22;8482;54.396;18.590;2023-11-21T06:15:05;4.10;99.90
16728;DHT22;8482;54.396;18.590;2023-11-21T06:17:34;4.10;99.90
16728;DHT22;8482;54.396;18.590;2023-11-21T06:20:06;4.10;99.90
16728;DHT22;8482;54.396;18.590;2023-11-21T06:22:37;4.10;99.90
16728;DHT22;8482;54.396;18.590;2023-11-21T06:25:07;4.10;99.90
16728;DHT22;8482;54.396;18.590;2023-11-21T06:27:40;4.10;99.90
16728;DHT22;8482;54.396;18.590;2023-11-21T06:30:08;4.10;99.90
16728;DHT22;8482;54.396;18.590;2023-11-21T06:32:35;4.10;99.90
16728;DHT22;8482;54.396;18.590;2023-11-21T06:35:03;4.10;99.90
16728;DHT22;8482;54.396;18.590;2023-11-21T06:37:30;4.10;99.90
16728;DHT22;8482;54.396;18.590;2023-11-21T06:39:58;4.10;99.90
16728;DHT22;8482;54.396;18.590;2023-11-21T06:42:24;4.10;99.90
16728;DHT22;8482;54.396;18.590;2023-11-21T06:44:51;4.10;99.90
16728;DHT22;8482;54.396;18.590;2023-11-21T06:47:17;4.10;99.90
16728;DHT22;8482;54.396;18.590;2023-11-21T06:49:45;4.10;99.90
16728;DHT22;8482;54.396;18.590;2023-11-21T06:52:14;4.10;99.90
16728;DHT22;8482;54.396;18.590;2023-11-21T06:54:40;4.00;99.90
16728;DHT22;8482;54.396;18.590;2023-11-21T06:57:06;4.00;99.90
16728;DHT22;8482;54.396;18.590;2023-11-21T06:59:33;4.10;99.90
16728;DHT22;8482;54.396;18.590;2023-11-21T07:01:59;4.00;99.90
16728;DHT22;8482;54.396;18.590;2023-11-21T07:04:25;4.00;99.90
16728;DHT22;8482;54.396;18.590;2023-11-21T07:06:54;4.00;99.90
16728;DHT22;8482;54.396;18.590;2023-11-21T07:09:20;4.00;99.90
16728;DHT22;8482;54.396;18.590;2023-11-21T07:11:51;4.00;99.90
16728;DHT22;8482;54.396;18.590;2023-11-21T07:14:17;4.00;99.90
16728;DHT22;8482;54.396;18.590;2023-11-21T07:16:45;4.00;99.90
16728;DHT22;8482;54.396;18.590;2023-11-21T07:19:12;4.00;99.90
16728;DHT22;8482;54.396;18.590;2023-11-21T07:21:39;4.00;99.90
16728;DHT22;8482;54.396;18.590;2023-11-21T07:24:06;4.00;99.90
16728;DHT22;8482;54.396;18.590;2023-11-21T07:26:34;4.10;99.90
16728;DHT22;8482;54.396;18.590;2023-11-21T07:29:04;4.10;99.90
16728;DHT22;8482;54.396;18.590;2023-11-21T07:31:31;4.10;99.90
16728;DHT22;8482;54.396;18.590;2023-11-21T07:33:59;4.10;99.90
16728;DHT22;8482;54.396;18.590;2023-11-21T07:36:26;4.10;99.90
16728;DHT22;8482;54.396;18.590;2023-11-21T07:38:53;4.10;99.90
16728;DHT22;8482;54.396;18.590;2023-11-21T07:41:19;4.10;99.90
16728;DHT22;8482;54.396;18.590;2023-11-21T07:43:46;4.20;99.90
16728;DHT22;8482;54.396;18.590;2023-11-21T07:46:12;4.10;99.90
16728;DHT22;8482;54.396;18.590;2023-11-21T07:48:40;4.10;99.90
16728;DHT22;8482;54.396;18.590;2023-11-21T07:51:07;4.10;99.90
16728;DHT22;8482;54.396;18.590;2023-11-21T07:53:34;4.10;99.90
16728;DHT22;8482;54.396;18.590;2023-11-21T07:56:04;4.10;99.90
16728;DHT22;8482;54.396;18.590;2023-11-21T07:58:31;4.20;99.90
16728;DHT22;8482;54.396;18.590;2023-11-21T08:00:59;4.20;99.90
16728;DHT22;8482;54.396;18.590;2023-11-21T08:03:25;4.20;99.90
16728;DHT22;8482;54.396;18.590;2023-11-21T08:05:58;4.20;99.90
16728;DHT22;8482;54.396;18.590;2023-11-21T08:08:25;4.30;99.90
16728;DHT22;8482;54.396;18.590;2023-11-21T08:10:52;4.30;99.90
16728;DHT22;8482;54.396;18.590;2023-11-21T08:13:25;4.30;99.90
16728;DHT22;8482;54.396;18.590;2023-11-21T08:15:56;4.30;99.90
16728;DHT22;8482;54.396;18.590;2023-11-21T08:18:27;4.30;99.90
16728;DHT22;8482;54.396;18.590;2023-11-21T08:20:54;4.40;99.90
16728;DHT22;8482;54.396;18.590;2023-11-21T08:23:21;4.40;99.90
16728;DHT22;8482;54.396;18.590;2023-11-21T08:25:51;4.40;99.90
16728;DHT22;8482;54.396;18.590;2023-11-21T08:28:18;4.50;99.90
16728;DHT22;8482;54.396;18.590;2023-11-21T08:30:45;4.50;99.90
16728;DHT22;8482;54.396;18.590;2023-11-21T08:33:10;4.50;99.90
16728;DHT22;8482;54.396;18.590;2023-11-21T08:35:37;4.50;99.90
16728;DHT22;8482;54.396;18.590;2023-11-21T08:38:04;4.50;99.90
16728;DHT22;8482;54.396;18.590;2023-11-21T08:40:30;4.50;99.90
16728;DHT22;8482;54.396;18.590;2023-11-21T08:42:56;4.50;99.90
16728;DHT22;8482;54.396;18.590;2023-11-21T08:45:24;4.50;99.90
16728;DHT22;8482;54.396;18.590;2023-11-21T08:47:54;4.50;99.90
16728;DHT22;8482;54.396;18.590;2023-11-21T08:50:20;4.50;99.90
16728;DHT22;8482;54.396;18.590;2023-11-21T08:52:46;4.50;99.90
16728;DHT22;8482;54.396;18.590;2023-11-21T08:55:12;4.50;99.90
16728;DHT22;8482;54.396;18.590;2023-11-21T08:57:38;4.60;99.90
16728;DHT22;8482;54.396;18.590;2023-11-21T09:00:07;4.60;99.90
16728;DHT22;8482;54.396;18.590;2023-11-21T09:02:40;4.60;99.90
16728;DHT22;8482;54.396;18.590;2023-11-21T09:05:08;4.60;99.90
16728;DHT22;8482;54.396;18.590;2023-11-21T09:07:39;4.70;99.90
16728;DHT22;8482;54.396;18.590;2023-11-21T09:10:07;4.70;99.90
16728;DHT22;8482;54.396;18.590;2023-11-21T09:12:35;4.80;99.90
16728;DHT22;8482;54.396;18.590;2023-11-21T09:15:06;4.90;99.90
16728;DHT22;8482;54.396;18.590;2023-11-21T09:17:34;4.90;99.90
16728;DHT22;8482;54.396;18.590;2023-11-21T09:20:00;5.00;99.90
16728;DHT22;8482;54.396;18.590;2023-11-21T09:22:26;5.00;99.90
16728;DHT22;8482;54.396;18.590;2023-11-21T09:24:52;5.00;99.90
16728;DHT22;8482;54.396;18.590;2023-11-21T09:27:19;5.00;99.90
16728;DHT22;8482;54.396;18.590;2023-11-21T09:29:45;5.00;99.90
16728;DHT22;8482;54.396;18.590;2023-11-21T09:32:13;5.10;99.90
16728;DHT22;8482;54.396;18.590;2023-11-21T09:34:41;5.10;99.90
16728;DHT22;8482;54.396;18.590;2023-11-21T09:37:07;5.10;99.90
16728;DHT22;8482;54.396;18.590;2023-11-21T09:39:34;5.10;99.90
16728;DHT22;8482;54.396;18.590;2023-11-21T09:42:17;5.10;99.90
16728;DHT22;8482;54.396;18.590;2023-11-21T09:45:03;5.10;99.90
16728;DHT22;8482;54.396;18.590;2023-11-21T09:47:35;5.10;99.90
16728;DHT22;8482;54.396;18.590;2023-11-21T09:50:05;5.10;99.90
16728;DHT22;8482;54.396;18.590;2023-11-21T09:55:16;5.20;99.90
16728;DHT22;8482;54.396;18.590;2023-11-21T09:57:47;5.10;99.90
16728;DHT22;8482;54.396;18.590;2023-11-21T10:00:16;5.10;99.90
16728;DHT22;8482;54.396;18.590;2023-11-21T10:02:46;5.10;99.90
16728;DHT22;8482;54.396;18.590;2023-11-21T10:05:15;5.10;99.90
16728;DHT22;8482;54.396;18.590;2023-11-21T10:07:43;5.10;99.90
16728;DHT22;8482;54.396;18.590;2023-11-21T10:10:15;5.10;99.90
16728;DHT22;8482;54.396;18.590;2023-11-21T10:12:50;5.10;99.90
16728;DHT22;8482;54.396;18.590;2023-11-21T10:15:22;5.10;99.90
16728;DHT22;8482;54.396;18.590;2023-11-21T10:17:50;5.10;99.90
16728;DHT22;8482;54.396;18.590;2023-11-21T10:20:19;5.10;99.90
16728;DHT22;8482;54.396;18.590;2023-11-21T10:22:46;5.10;99.90
16728;DHT22;8482;54.396;18.590;2023-11-21T10:25:12;5.10;99.90
16728;DHT22;8482;54.396;18.590;2023-11-21T10:27:42;5.10;99.90
16728;DHT22;8482;54.396;18.590;2023-11-21T10:30:09;5.10;99.90
16728;DHT22;8482;54.396;18.590;2023-11-21T10:32:38;5.20;99.90
16728;DHT22;8482;54.396;18.590;2023-11-21T10:35:09;5.20;99.90
16728;DHT22;8482;54.396;18.590;2023-11-21T10:37:37;5.20;99.90
16728;DHT22;8482;54.396;18.590;2023-11-21T10:40:11;5.20;99.90
16728;DHT22;8482;54.396;18.590;2023-11-21T10:42:41;5.20;99.90
16728;DHT22;8482;54.396;18.590;2023-11-21T10:45:08;5.20;99.90
16728;DHT22;8482;54.396;18.590;2023-11-21T10:47:40;5.20;99.90
16728;DHT22;8482;54.396;18.590;2023-11-21T10:50:07;5.20;99.90
16728;DHT22;8482;54.396;18.590;2023-11-21T10:52:42;5.30;99.90
16728;DHT22;8482;54.396;18.590;2023-11-21T10:55:19;5.20;99.90
16728;DHT22;8482;54.396;18.590;2023-11-21T10:57:49;5.20;99.90
16728;DHT22;8482;54.396;18.590;2023-11-21T11:00:18;5.20;99.90
16728;DHT22;8482;54.396;18.590;2023-11-21T11:02:49;5.20;99.90
16728;DHT22;8482;54.396;18.590;2023-11-21T11:05:19;5.20;99.90
16728;DHT22;8482;54.396;18.590;2023-11-21T11:07:50;5.20;99.90
16728;DHT22;8482;54.396;18.590;2023-11-21T11:10:21;5.20;99.90
16728;DHT22;8482;54.396;18.590;2023-11-21T11:12:48;5.20;99.90
16728;DHT22;8482;54.396;18.590;2023-11-21T11:15:16;5.20;99.90
16728;DHT22;8482;54.396;18.590;2023-11-21T11:17:42;5.20;99.90
16728;DHT22;8482;54.396;18.590;2023-11-21T11:20:12;5.20;99.90
16728;DHT22;8482;54.396;18.590;2023-11-21T11:22:50;5.20;99.90
16728;DHT22;8482;54.396;18.590;2023-11-21T11:28:17;5.30;99.90
16728;DHT22;8482;54.396;18.590;2023-11-21T11:31:04;5.20;99.90
16728;DHT22;8482;54.396;18.590;2023-11-21T11:33:59;5.30;99.90
16728;DHT22;8482;54.396;18.590;2023-11-21T11:36:31;5.30;99.90
16728;DHT22;8482;54.396;18.590;2023-11-21T11:39:03;5.30;99.90
16728;DHT22;8482;54.396;18.590;2023-11-21T11:41:31;5.30;99.90
16728;DHT22;8482;54.396;18.590;2023-11-21T11:44:00;5.40;99.90
16728;DHT22;8482;54.396;18.590;2023-11-21T11:46:47;5.40;99.90
16728;DHT22;8482;54.396;18.590;2023-11-21T11:49:27;5.40;99.90
16728;DHT22;8482;54.396;18.590;2023-11-21T11:55:02;5.50;99.90
16728;DHT22;8482;54.396;18.590;2023-11-21T11:57:34;5.50;99.90
16728;DHT22;8482;54.396;18.590;2023-11-21T12:02:50;5.60;99.90
16728;DHT22;8482;54.396;18.590;2023-11-21T12:05:18;5.60;99.90
16728;DHT22;8482;54.396;18.590;2023-11-21T12:07:55;5.60;99.90
16728;DHT22;8482;54.396;18.590;2023-11-21T12:10:28;5.60;99.90
16728;DHT22;8482;54.396;18.590;2023-11-21T12:13:06;5.60;99.90
16728;DHT22;8482;54.396;18.590;2023-11-21T12:15:34;5.60;99.90
16728;DHT22;8482;54.396;18.590;2023-11-21T12:18:01;5.60;99.90
16728;DHT22;8482;54.396;18.590;2023-11-21T12:20:27;5.70;99.90
16728;DHT22;8482;54.396;18.590;2023-11-21T12:22:55;5.70;99.90
16728;DHT22;8482;54.396;18.590;2023-11-21T12:25:29;5.70;99.90
16728;DHT22;8482;54.396;18.590;2023-11-21T12:27:57;5.70;99.90
16728;DHT22;8482;54.396;18.590;2023-11-21T12:30:30;5.70;99.90
16728;DHT22;8482;54.396;18.590;2023-11-21T12:32:59;5.70;99.90
16728;DHT22;8482;54.396;18.590;2023-11-21T12:35:27;5.70;99.90
16728;DHT22;8482;54.396;18.590;2023-11-21T12:37:55;5.70;99.90
16728;DHT22;8482;54.396;18.590;2023-11-21T12:40:25;5.70;99.90
16728;DHT22;8482;54.396;18.590;2023-11-21T12:43:06;5.70;99.90
16728;DHT22;8482;54.396;18.590;2023-11-21T12:45:42;5.70;99.90
16728;DHT22;8482;54.396;18.590;2023-11-21T12:48:14;5.70;99.90
16728;DHT22;8482;54.396;18.590;2023-11-21T12:50:41;5.70;99.90
16728;DHT22;8482;54.396;18.590;2023-11-21T12:53:09;5.60;99.90
16728;DHT22;8482;54.396;18.590;2023-11-21T12:55:43;5.70;99.90
16728;DHT22;8482;54.396;18.590;2023-11-21T12:58:15;5.60;99.90
16728;DHT22;8482;54.396;18.590;2023-11-21T13:00:47;5.60;99.90
16728;DHT22;8482;54.396;18.590;2023-11-21T13:03:15;5.60;99.90
16728;DHT22;8482;54.396;18.590;2023-11-21T13:05:45;5.50;99.90
16728;DHT22;8482;54.396;18.590;2023-11-21T13:08:16;5.50;99.90
16728;DHT22;8482;54.396;18.590;2023-11-21T13:10:45;5.50;99.90
16728;DHT22;8482;54.396;18.590;2023-11-21T13:13:14;5.50;99.90
16728;DHT22;8482;54.396;18.590;2023-11-21T13:16:02;5.50;99.90
16728;DHT22;8482;54.396;18.590;2023-11-21T13:18:32;5.60;99.90
16728;DHT22;8482;54.396;18.590;2023-11-21T13:21:01;5.60;99.90
16728;DHT22;8482;54.396;18.590;2023-11-21T13:23:35;5.60;99.90
16728;DHT22;8482;54.396;18.590;2023-11-21T13:26:05;5.60;99.90
16728;DHT22;8482;54.396;18.590;2023-11-21T13:28:32;5.60;99.90
16728;DHT22;8482;54.396;18.590;2023-11-21T13:31:02;5.70;99.90
16728;DHT22;8482;54.396;18.590;2023-11-21T13:33:47;5.70;99.90
16728;DHT22;8482;54.396;18.590;2023-11-21T13:36:22;5.70;99.90
16728;DHT22;8482;54.396;18.590;2023-11-21T13:38:50;5.70;99.90
16728;DHT22;8482;54.396;18.590;2023-11-21T13:41:18;5.70;99.90
16728;DHT22;8482;54.396;18.590;2023-11-21T13:43:44;5.80;99.90
16728;DHT22;8482;54.396;18.590;2023-11-21T13:46:16;5.70;99.90
16728;DHT22;8482;54.396;18.590;2023-11-21T13:48:48;5.70;99.90
16728;DHT22;8482;54.396;18.590;2023-11-21T13:51:19;5.70;99.90
16728;DHT22;8482;54.396;18.590;2023-11-21T13:53:47;5.70;99.90
16728;DHT22;8482;54.396;18.590;2023-11-21T13:56:16;5.70;99.90
16728;DHT22;8482;54.396;18.590;2023-11-21T13:58:49;5.70;99.90
16728;DHT22;8482;54.396;18.590;2023-11-21T14:01:28;5.70;99.90
16728;DHT22;8482;54.396;18.590;2023-11-21T14:03:58;5.70;99.90
16728;DHT22;8482;54.396;18.590;2023-11-21T14:06:37;5.60;99.90
16728;DHT22;8482;54.396;18.590;2023-11-21T14:09:16;5.60;99.90
16728;DHT22;8482;54.396;18.590;2023-11-21T14:11:54;5.60;99.90
16728;DHT22;8482;54.396;18.590;2023-11-21T14:14:23;5.60;99.90
16728;DHT22;8482;54.396;18.590;2023-11-21T14:16:51;5.60;99.90
16728;DHT22;8482;54.396;18.590;2023-11-21T14:19:18;5.60;99.90
16728;DHT22;8482;54.396;18.590;2023-11-21T14:21:45;5.50;99.90
16728;DHT22;8482;54.396;18.590;2023-11-21T14:24:12;5.50;99.90
16728;DHT22;8482;54.396;18.590;2023-11-21T14:26:42;5.50;99.90
16728;DHT22;8482;54.396;18.590;2023-11-21T14:29:11;5.50;99.90
16728;DHT22;8482;54.396;18.590;2023-11-21T14:31:40;5.50;99.90
16728;DHT22;8482;54.396;18.590;2023-11-21T14:34:07;5.40;99.90
16728;DHT22;8482;54.396;18.590;2023-11-21T14:36:36;5.40;99.90
16728;DHT22;8482;54.396;18.590;2023-11-21T14:39:03;5.40;99.90
16728;DHT22;8482;54.396;18.590;2023-11-21T14:41:32;5.40;99.90
16728;DHT22;8482;54.396;18.590;2023-11-21T14:44:01;5.40;99.90
16728;DHT22;8482;54.396;18.590;2023-11-21T14:46:28;5.40;99.90
16728;DHT22;8482;54.396;18.590;2023-11-21T14:48:54;5.40;99.90
16728;DHT22;8482;54.396;18.590;2023-11-21T14:51:26;5.40;99.90
16728;DHT22;8482;54.396;18.590;2023-11-21T14:53:58;5.40;99.90
16728;DHT22;8482;54.396;18.590;2023-11-21T14:56:35;5.40;99.90
16728;DHT22;8482;54.396;18.590;2023-11-21T14:59:03;5.30;99.90
16728;DHT22;8482;54.396;18.590;2023-11-21T15:01:38;5.30;99.90
16728;DHT22;8482;54.396;18.590;2023-11-21T15:04:19;5.30;99.90
16728;DHT22;8482;54.396;18.590;2023-11-21T15:07:02;5.30;99.90
16728;DHT22;8482;54.396;18.590;2023-11-21T15:09:29;5.30;99.90
16728;DHT22;8482;54.396;18.590;2023-11-21T15:11:58;5.30;99.90
16728;DHT22;8482;54.396;18.590;2023-11-21T15:14:51;5.30;99.90
16728;DHT22;8482;54.396;18.590;2023-11-21T15:17:22;5.30;99.90
16728;DHT22;8482;54.396;18.590;2023-11-21T15:19:52;5.30;99.90
16728;DHT22;8482;54.396;18.590;2023-11-21T15:22:19;5.30;99.90
16728;DHT22;8482;54.396;18.590;2023-11-21T15:24:45;5.30;99.90
16728;DHT22;8482;54.396;18.590;2023-11-21T15:27:15;5.20;99.90
16728;DHT22;8482;54.396;18.590;2023-11-21T15:29:42;5.20;99.90
16728;DHT22;8482;54.396;18.590;2023-11-21T15:32:09;5.20;99.90
16728;DHT22;8482;54.396;18.590;2023-11-21T15:34:36;5.20;99.90
16728;DHT22;8482;54.396;18.590;2023-11-21T15:37:03;5.20;99.90
16728;DHT22;8482;54.396;18.590;2023-11-21T15:39:31;5.20;99.90
16728;DHT22;8482;54.396;18.590;2023-11-21T15:41:57;5.20;99.90
16728;DHT22;8482;54.396;18.590;2023-11-21T15:44:24;5.20;99.90
16728;DHT22;8482;54.396;18.590;2023-11-21T15:46:53;5.20;99.90
16728;DHT22;8482;54.396;18.590;2023-11-21T15:49:19;5.20;99.90
16728;DHT22;8482;54.396;18.590;2023-11-21T15:51:50;5.20;99.90
16728;DHT22;8482;54.396;18.590;2023-11-21T15:54:21;5.20;99.90
16728;DHT22;8482;54.396;18.590;2023-11-21T15:56:49;5.20;99.90
16728;DHT22;8482;54.396;18.590;2023-11-21T15:59:17;5.20;99.90
16728;DHT22;8482;54.396;18.590;2023-11-21T16:01:44;5.20;99.90
16728;DHT22;8482;54.396;18.590;2023-11-21T16:04:13;5.20;99.90